F/V Anna Mamm Mari — FOHD — position and weather

sailwx.info

Track history (hours):
 
Tides and Currents Weather Stations Pressure Air Temp Water Temp Dewpoint Dewpoint Depression Visibility Wind Speed Wind Dir Waves Ship Positions

F/V Anna Mamm Mari

Last reported at 2014-Oct-31 04:33 UTC. Time now 2014-Oct-31 06:12 UTC.
Position N 46°08' W 002°20'.

Length 17 m.

Type: Fishing. MMSI: 228393000.

Date/timePositionNaut miles runAvg speedWind from/ knotsBaromVisibWave heightAir tempDewpointWater temp
2014-Oct-31 04:33N 46°08' W 002°20'0 0.1
2014-Oct-31 03:25N 46°07' W 002°20'1 0.3
2014-Oct-31 00:17N 46°08' W 002°21'0 0.0
2014-Oct-30 22:29N 46°08' W 002°21'0 0.2
2014-Oct-30 21:17N 46°08' W 002°22'5 6.5
2014-Oct-30 20:33N 46°12' W 002°26'23 2.1
2014-Oct-30 09:31N 46°22' W 001°56'8 8.8
2014-Oct-30 08:33N 46°28' W 001°48'2 2.0
2014-Oct-30 07:33N 46°30' W 001°47'0 0.2
2014-Oct-30 06:33N 46°30' W 001°47'0 0.0
2014-Oct-30 05:33N 46°30' W 001°47'0 0.2
2014-Oct-30 04:33N 46°30' W 001°47'2 2.2
2014-Oct-30 03:33N 46°28' W 001°48'9 8.9
2014-Oct-30 02:33N 46°23' W 001°59'18 8.6
2014-Oct-30 00:27N 46°13' W 002°21'4 4.4
2014-Oct-29 23:27N 46°09' W 002°23'4 1.1
2014-Oct-29 20:07N 46°12' W 002°26'1 1.1
2014-Oct-29 19:10N 46°11' W 002°24'1 2.1
2014-Oct-29 18:33N 46°12' W 002°26'8 1.2
2014-Oct-29 12:24N 46°07' W 002°18'7 0.5
2014-Oct-28 23:32N 46°12' W 002°25'23 1.7
2014-Oct-28 10:24N 46°23' W 001°56'8 9.1
2014-Oct-28 09:33N 46°28' W 001°48'2 1.9
2014-Oct-28 08:33N 46°30' W 001°47'0 0.0
2014-Oct-28 07:33N 46°30' W 001°47'0 0.0
2014-Oct-28 06:33N 46°30' W 001°47'0 0.0
2014-Oct-28 05:33N 46°30' W 001°47'0 0.0
2014-Oct-28 04:33N 46°30' W 001°47'0 0.0
2014-Oct-28 03:33N 46°30' W 001°47'0 0.1
2014-Oct-28 02:33N 46°30' W 001°47'1 0.9
2014-Oct-28 01:33N 46°29' W 001°47'8 8.3
2014-Oct-28 00:33N 46°23' W 001°56'8 8.4
2014-Oct-27 23:33N 46°17' W 002°05'9 8.0
2014-Oct-27 22:23N 46°11' W 002°14'7 1.2
2014-Oct-27 16:30N 46°07' W 002°23'2 0.9
2014-Oct-27 14:33N 46°07' W 002°20'0 0.4
2014-Oct-27 13:32N 46°07' W 002°20'2 0.6
2014-Oct-27 11:08N 46°07' W 002°18'0 0.5
2014-Oct-27 10:17N 46°06' W 002°18'0 0.5
2014-Oct-27 09:32N 46°06' W 002°18'1 0.7
2014-Oct-27 08:33N 46°06' W 002°19'0 0.0
2014-Oct-27 07:33N 46°06' W 002°19'0 0.1
2014-Oct-27 06:33N 46°06' W 002°19'0 0.1
2014-Oct-27 05:33N 46°06' W 002°19'24 0.5
2014-Oct-25 04:28N 46°23' W 001°55'6 7.1
2014-Oct-25 03:33N 46°28' W 001°48'2 2.3
2014-Oct-25 02:33N 46°30' W 001°47'0 0.2
2014-Oct-25 01:33N 46°30' W 001°47'0 0.0
2014-Oct-25 00:33N 46°30' W 001°47'0 0.0
2014-Oct-24 23:33N 46°30' W 001°47'0 0.0
2014-Oct-24 22:33N 46°30' W 001°47'0 0.0
2014-Oct-24 21:33N 46°30' W 001°47'0 0.2
2014-Oct-24 20:33N 46°30' W 001°48'7 7.3
2014-Oct-24 19:33N 46°24' W 001°54'9 8.6
2014-Oct-24 18:33N 46°18' W 002°03'8 0.2
2014-Oct-23 06:17N 46°23' W 001°55'6 8.7
2014-Oct-23 05:33N 46°28' W 001°48'2 2.4
2014-Oct-23 04:33N 46°30' W 001°47'0 0.0
2014-Oct-23 03:33N 46°30' W 001°47'0 0.0
2014-Oct-23 02:33N 46°30' W 001°47'4 3.6
2014-Oct-23 01:33N 46°27' W 001°50'9 8.8
2014-Oct-23 00:33N 46°21' W 001°59'2 0.1
2014-Oct-22 02:20N 46°22' W 001°57'6 7.7
2014-Oct-22 01:33N 46°26' W 001°51'5 4.7
2014-Oct-22 00:33N 46°30' W 001°47'0 0.0
2014-Oct-21 23:33N 46°30' W 001°47'0 0.0
2014-Oct-21 22:33N 46°30' W 001°47'0 0.0
2014-Oct-21 21:33N 46°30' W 001°47'0 0.0
2014-Oct-21 20:33N 46°30' W 001°47'0 0.0
2014-Oct-21 19:33N 46°30' W 001°47'0 0.0
2014-Oct-21 18:33N 46°30' W 001°47'0 0.0
2014-Oct-21 17:33N 46°30' W 001°47'0 0.0
2014-Oct-21 16:33N 46°30' W 001°47'6 5.5
2014-Oct-21 15:33N 46°25' W 001°52'  
Track history (hours):
 
Tides and Currents Weather Stations Pressure Air Temp Water Temp Dewpoint Dewpoint Depression Visibility Wind Speed Wind Dir Waves Ship Positions

F/V Anna Mamm Mari

Last reported at 2014-Oct-31 04:33 UTC. Time now 2014-Oct-31 06:12 UTC.
Position N 46°08' W 002°20'.

Length 17 m.

Type: Fishing. MMSI: 228393000.

Date/timePositionNaut miles runAvg speedWind from/ knotsBaromVisibWave heightAir tempDewpointWater temp
2014-Oct-31 04:33N 46°08' W 002°20'0 0.1
2014-Oct-31 03:25N 46°07' W 002°20'1 0.3
2014-Oct-31 00:17N 46°08' W 002°21'0 0.0
2014-Oct-30 22:29N 46°08' W 002°21'0 0.2
2014-Oct-30 21:17N 46°08' W 002°22'5 6.5
2014-Oct-30 20:33N 46°12' W 002°26'23 2.1
2014-Oct-30 09:31N 46°22' W 001°56'8 8.8
2014-Oct-30 08:33N 46°28' W 001°48'2 2.0
2014-Oct-30 07:33N 46°30' W 001°47'0 0.2
2014-Oct-30 06:33N 46°30' W 001°47'0 0.0
2014-Oct-30 05:33N 46°30' W 001°47'0 0.2
2014-Oct-30 04:33N 46°30' W 001°47'2 2.2
2014-Oct-30 03:33N 46°28' W 001°48'9 8.9
2014-Oct-30 02:33N 46°23' W 001°59'18 8.6
2014-Oct-30 00:27N 46°13' W 002°21'4 4.4
2014-Oct-29 23:27N 46°09' W 002°23'4 1.1
2014-Oct-29 20:07N 46°12' W 002°26'1 1.1
2014-Oct-29 19:10N 46°11' W 002°24'1 2.1
2014-Oct-29 18:33N 46°12' W 002°26'8 1.2
2014-Oct-29 12:24N 46°07' W 002°18'7 0.5
2014-Oct-28 23:32N 46°12' W 002°25'23 1.7
2014-Oct-28 10:24N 46°23' W 001°56'8 9.1
2014-Oct-28 09:33N 46°28' W 001°48'2 1.9
2014-Oct-28 08:33N 46°30' W 001°47'0 0.0
2014-Oct-28 07:33N 46°30' W 001°47'0 0.0
2014-Oct-28 06:33N 46°30' W 001°47'0 0.0
2014-Oct-28 05:33N 46°30' W 001°47'0 0.0
2014-Oct-28 04:33N 46°30' W 001°47'0 0.0
2014-Oct-28 03:33N 46°30' W 001°47'0 0.1
2014-Oct-28 02:33N 46°30' W 001°47'1 0.9
2014-Oct-28 01:33N 46°29' W 001°47'8 8.3
2014-Oct-28 00:33N 46°23' W 001°56'8 8.4
2014-Oct-27 23:33N 46°17' W 002°05'9 8.0
2014-Oct-27 22:23N 46°11' W 002°14'7 1.2
2014-Oct-27 16:30N 46°07' W 002°23'2 0.9
2014-Oct-27 14:33N 46°07' W 002°20'0 0.4
2014-Oct-27 13:32N 46°07' W 002°20'2 0.6
2014-Oct-27 11:08N 46°07' W 002°18'0 0.5
2014-Oct-27 10:17N 46°06' W 002°18'0 0.5
2014-Oct-27 09:32N 46°06' W 002°18'1 0.7
2014-Oct-27 08:33N 46°06' W 002°19'0 0.0
2014-Oct-27 07:33N 46°06' W 002°19'0 0.1
2014-Oct-27 06:33N 46°06' W 002°19'0 0.1
2014-Oct-27 05:33N 46°06' W 002°19'24 0.5
2014-Oct-25 04:28N 46°23' W 001°55'6 7.1
2014-Oct-25 03:33N 46°28' W 001°48'2 2.3
2014-Oct-25 02:33N 46°30' W 001°47'0 0.2
2014-Oct-25 01:33N 46°30' W 001°47'0 0.0
2014-Oct-25 00:33N 46°30' W 001°47'0 0.0
2014-Oct-24 23:33N 46°30' W 001°47'0 0.0
2014-Oct-24 22:33N 46°30' W 001°47'0 0.0
2014-Oct-24 21:33N 46°30' W 001°47'0 0.2
2014-Oct-24 20:33N 46°30' W 001°48'7 7.3
2014-Oct-24 19:33N 46°24' W 001°54'9 8.6
2014-Oct-24 18:33N 46°18' W 002°03'8 0.2
2014-Oct-23 06:17N 46°23' W 001°55'6 8.7
2014-Oct-23 05:33N 46°28' W 001°48'2 2.4
2014-Oct-23 04:33N 46°30' W 001°47'0 0.0
2014-Oct-23 03:33N 46°30' W 001°47'0 0.0
2014-Oct-23 02:33N 46°30' W 001°47'4 3.6
2014-Oct-23 01:33N 46°27' W 001°50'9 8.8
2014-Oct-23 00:33N 46°21' W 001°59'2 0.1
2014-Oct-22 02:20N 46°22' W 001°57'6 7.7
2014-Oct-22 01:33N 46°26' W 001°51'5 4.7
2014-Oct-22 00:33N 46°30' W 001°47'0 0.0
2014-Oct-21 23:33N 46°30' W 001°47'0 0.0
2014-Oct-21 22:33N 46°30' W 001°47'0 0.0
2014-Oct-21 21:33N 46°30' W 001°47'0 0.0
2014-Oct-21 20:33N 46°30' W 001°47'0 0.0
2014-Oct-21 19:33N 46°30' W 001°47'0 0.0
2014-Oct-21 18:33N 46°30' W 001°47'0 0.0
2014-Oct-21 17:33N 46°30' W 001°47'0 0.0
2014-Oct-21 16:33N 46°30' W 001°47'6 5.5
2014-Oct-21 15:33N 46°25' W 001°52'  

Dump ship's entire track history